Flight Track Log - Related Links

Times and Time Zones

All times are in EDT time to prevent confusion due to time zone crossing. See the RPA3865 flight status page for this flight to view local times or setup timezone preferences in your user account.

Time Position Orientation Groundspeed Altitude Reporting Facility
EDT Latitude Longitude Course Direction KTS MPH feet Rate Location/Type
Sun 07:29:01 PM 40.6333 -74.2000 304° West 218 251 2,600  Level New York TRACON
Sun 07:30:01 PM 40.6667 -74.2667 303° West 234 269 5,000 2,632 Climbing New York TRACON
Sun 07:30:55 PM 40.7167 -74.3000 333° Northwest 230 265 7,600 2,368 Climbing New York TRACON
Sun 07:31:00 PM 40.9837 -74.5134 317° Northwest  Level FlightAware Approximate
Sun 07:31:55 PM 40.7833 -74.3333 339° North 247 284 9,500  Level New York TRACON
Sun 07:32:00 PM 41.0566 -74.6060 316° Northwest  Level FlightAware Approximate
Sun 07:32:55 PM 40.8333 -74.4000 315° West 280 322 11,200  Level New York TRACON
Sun 07:33:00 PM 41.1333 -74.6841 270° West  Level FlightAware Approximate
Sun 07:33:55 PM 40.9000 -74.4667 323° Northwest 297 342 12,900  Level New York TRACON
Sun 07:34:00 PM 41.1756 -74.8012 304° West  Level FlightAware Approximate
Sun 07:34:17 PM 40.9322 -74.4928 329° Northwest 307 353 13,500  Level New York Center
Sun 07:35:18 PM 40.9867 -74.5478 323° Northwest 318 366 14,000 242 Climbing New York Center
Sun 07:36:21 PM 41.0714 -74.6297 324° Northwest 342 394 14,000  Level New York Center
Sun 07:37:18 PM 41.1439 -74.7108 320° Northwest 348 400 14,000  Level New York Center
Sun 07:38:19 PM 41.1942 -74.8214 301° West 341 392 14,000 454 Level New York Center
Sun 07:39:17 PM 41.2381 -74.9344 297° West 346 398 14,900 1,250 Climbing New York Center
Sun 07:40:19 PM 41.2847 -75.0339 302° West 337 388 16,500 1,426 Climbing New York Center
Sun 07:41:19 PM 41.3231 -75.1219 300° West 320 368 17,800 1,261 Climbing New York Center
Sun 07:42:18 PM 41.3669 -75.2272 299° West 307 353 19,000 1,100 Climbing New York Center
Sun 07:43:19 PM 41.4031 -75.3181 298° West 302 348 20,000 992 Climbing New York Center
Sun 07:44:19 PM 41.4472 -75.4150 301° West 302 348 21,000 1,008 Climbing New York Center
Sun 07:45:18 PM 41.4869 -75.5175 297° West 302 348 22,000 1,000 Climbing New York Center
Sun 07:46:19 PM 41.5194 -75.6417 289° West 315 362 23,000 942 Climbing New York Center
Sun 07:47:19 PM 41.5467 -75.7353 291° West 315 362 23,900 508 Climbing New York Center
Sun 07:48:17 PM 41.5817 -75.8486 292° West 315 362 24,000 50 Climbing New York Center
Sun 07:49:18 PM 41.6139 -75.9678 290° West 322 371 24,000  Level New York Center
Sun 07:50:18 PM 41.6500 -76.0900 292° West 341 392 24,000  Level New York Center
Sun 07:51:18 PM 41.6856 -76.2289 289° West 354 407 24,000  Level New York Center
Sun 07:52:19 PM 41.7197 -76.3456 291° West 365 420 24,000  Level New York Center
Sun 07:53:17 PM 41.7553 -76.4736 290° West 365 420 24,000  Level New York Center
Sun 07:54:17 PM 41.7961 -76.6164 291° West 365 420 24,000  Level New York Center
Sun 07:55:18 PM 41.8294 -76.7444 289° West 371 427 24,000  Level New York Center
Sun 07:56:18 PM 41.8667 -76.8731 291° West 371 427 24,000  Level New York Center
Sun 07:56:36 PM 41.8764 -76.9186 286° West 372 428 24,000  Level Cleveland Center
Sun 07:57:36 PM 41.8531 -77.0369 255° West 362 417 24,000  Level Cleveland Center
Sun 07:58:36 PM 41.8047 -77.1622 243° Southwest 362 417 24,000  Level Cleveland Center
Sun 07:59:36 PM 41.7606 -77.2925 246° West 375 432 24,000  Level Cleveland Center
Sun 08:00:36 PM 41.7164 -77.4200 245° Southwest 380 437 24,000  Level Cleveland Center
Sun 08:01:36 PM 41.6658 -77.5561 244° Southwest 390 449 24,000  Level Cleveland Center
Sun 08:02:36 PM 41.6211 -77.6858 245° Southwest 385 443 24,000  Level Cleveland Center
Sun 08:03:36 PM 41.5764 -77.8128 245° Southwest 385 443 24,000  Level Cleveland Center
Sun 08:04:36 PM 41.5333 -77.9367 245° Southwest 385 443 24,000  Level Cleveland Center
Sun 08:05:36 PM 41.4903 -78.0606 245° Southwest 385 443 24,000 -450 Level Cleveland Center
Sun 08:06:36 PM 41.4453 -78.1897 245° Southwest 385 443 23,100 -950 Descending Cleveland Center
Sun 08:07:36 PM 41.4017 -78.3103 244° Southwest 385 443 22,100 -367 Descending Cleveland Center
Sun 08:09:36 PM 41.3147 -78.5594 245° Southwest 379 436 22,000 -75 Descending Cleveland Center
Sun 08:11:36 PM 41.2125 -78.8056 241° Southwest 384 442 21,800 -925 Descending Cleveland Center
Sun 08:13:00 PM 41.1433 -78.9382 235° Southwest  Level FlightAware Approximate
Sun 08:13:36 PM 41.0969 -79.0375 235° Southwest 384 442 18,300  Level Cleveland Center
Sun 08:14:36 PM 41.0422 -79.1489 237° Southwest 378 435 16,700 -1,600 Descending Cleveland Center
Sun 08:15:36 PM 40.9892 -79.2544 236° Southwest 367 422 15,100 -1,600 Descending Cleveland Center
Sun 08:17:00 PM 40.9118 -79.3808 231° Southwest  Level FlightAware Approximate
Sun 08:17:36 PM 40.8872 -79.4542 231° Southwest 343 395 11,900  Level Cleveland Center
Sun 08:19:00 PM 40.8054 -79.5753 228° Southwest  Level FlightAware Approximate
Sun 08:19:36 PM 40.7950 -79.6369 228° Southwest 313 360 10,000  Level Cleveland Center
Sun 08:20:36 PM 40.7519 -79.7281 238° Southwest 302 348 10,000  Level Cleveland Center
Sun 08:21:36 PM 40.7067 -79.8161 236° Southwest 302 348 10,000  Level Cleveland Center
Sun 08:22:36 PM 40.6633 -79.9014 236° Southwest 297 342 10,000 -150 Level Cleveland Center
Sun 08:23:36 PM 40.6264 -79.9978 243° Southwest 297 342 9,700 -950 Descending Cleveland Center
Sun 08:24:36 PM 40.6061 -80.1017 256° West 292 336 8,100 -850 Descending Cleveland Center
Sun 08:25:36 PM 40.5856 -80.1950 254° West 284 327 8,000 -100 Descending Cleveland Center
Sun 08:27:00 PM 40.4833 -80.2167 237° Southwest  Level FlightAware Approximate
Sun 08:34:00 PM 40.4915 -80.2329 237° Southwest  Level Estimated

Login

Don't have an account? Register now (free) for customized features, flight alerts, and more!